This is the latest recevied weather packets stored in our database for station/object DF7ER-12. If no packets are shown the sender has not sent any weather packets the latest 10 day(s).
| Time | Temp. | Humidity | Pressure | Rain* | Wind** | Luminosity | Snow |
|---|---|---|---|---|---|---|---|
| 1788608277 | 21.67° C | 72% | 1005.5 hPa | - | - | - | - |
| 1788607978 | 22.78° C | 70% | 1005.5 hPa | - | - | - | - |
| 1788607677 | 23.33° C | 69% | 1005.3 hPa | - | - | - | - |
| 1788607377 | 22.78° C | 69% | 1005.3 hPa | - | - | - | - |
| 1788607077 | 23.33° C | 70% | 1005.3 hPa | - | - | - | - |
| 1788606777 | 23.89° C | 70% | 1005.3 hPa | - | - | - | - |
| 1788606477 | 23.89° C | 68% | 1005.2 hPa | - | - | - | - |
| 1788606177 | 22.78° C | 72% | 1005.3 hPa | - | - | - | - |
| 1788605877 | 23.89° C | 69% | 1005.2 hPa | - | - | - | - |
| 1788605577 | 22.78° C | 71% | 1005.1 hPa | - | - | - | - |
| 1788605277 | 23.33° C | 72% | 1005.2 hPa | - | - | - | - |
| 1788604977 | 23.33° C | 72% | 1005.3 hPa | - | - | - | - |
| 1788604677 | 23.33° C | 72% | 1005.2 hPa | - | - | - | - |
| 1788604383 | 23.33° C | 73% | 1005.2 hPa | - | - | - | - |
| 1788604077 | 22.22° C | 73% | 1005.2 hPa | - | - | - | - |
| 1788603777 | 22.78° C | 74% | 1005.2 hPa | - | - | - | - |
| 1788603477 | 22.22° C | 74% | 1005.2 hPa | - | - | - | - |
| 1788603177 | 22.22° C | 74% | 1005.2 hPa | - | - | - | - |
| 1788602877 | 22.22° C | 74% | 1005.1 hPa | - | - | - | - |
| 1788602577 | 21.67° C | 75% | 1005.2 hPa | - | - | - | - |
| 1788602277 | 22.22° C | 73% | 1005.1 hPa | - | - | - | - |
| 1788601977 | 22.22° C | 75% | 1005.1 hPa | - | - | - | - |
| 1788601677 | 22.22° C | 76% | 1005 hPa | - | - | - | - |
| 1788601408 | 22.22° C | 76% | 1005.1 hPa | - | - | - | - |
| 1788601077 | 22.22° C | 76% | 1005.1 hPa | - | - | - | - |
* Rain since midnight (hover to see other rain measurements)
** Current wind speed in m/s (hover to see current wind gust speed)